Lascar, Colorado
Current Conditions -  °F | °C
As of 8:53 PM on Friday 19 Dec 2014 (Local Time) from KPUB Reporting Station
Clear Clear  
Wind Chill: 18°   Ceiling: Unl
Heat Index: 26°   Visibility: 10mi
Dew Point: 20°   Wind: 8mph
Humidity: 78%   Direction: 10°N
Pressure: 30.05"   Gusts: NA
Location:  37.9584°N, 104.823°W
Report Text: KPUB 200353Z 01007KT 10SM CLR M03/M07 A3005 RMK AO2 SLP204 T10331067
Loading
Personal Weather Stations






























Interactive Weather Map New forecast layout! Learn more

10-Day Weather Forecast

Advertisements
Track Severe Weather on mobile